Time;durP1;ratioP1;P1;durP2;ratioP2;P2;SDS_P1;SDS_P2;PMS_P1;PMS_P2;Temp;Humidity;BMP_temperature;BMP_pressure;BME280_temperature;BME280_humidity;BME280_pressure;Samples;Min_cycle;Max_cycle;Signal;HPM_P1;HPM_P2
2022/07/20 00:00:49;;;;;;;12.60;6.65;;;15.10;77.40;;;;;;5107818;27;20019;-71
2022/07/20 00:03:56;;;;;;;10.80;5.82;;;15.10;77.30;;;;;;5112403;27;20019;-73
2022/07/20 00:07:02;;;;;;;18.52;7.18;;;15.10;77.40;;;;;;5112039;27;20032;-70
2022/07/20 00:13:32;;;;;;;11.07;6.05;;;15.10;77.40;;;;;;5110059;27;20047;-69
2022/07/20 00:16:38;;;;;;;12.30;6.50;;;15.10;77.40;;;;;;5109008;27;20559;-71
2022/07/20 00:19:44;;;;;;;11.60;6.13;;;15.10;77.40;;;;;;5110924;27;20042;-73
2022/07/20 00:22:50;;;;;;;11.45;6.63;;;15.00;77.40;;;;;;5108535;27;20080;-70
2022/07/20 00:25:56;;;;;;;14.65;6.53;;;15.00;77.70;;;;;;5112219;27;20100;-71
2022/07/20 00:29:02;;;;;;;10.00;7.18;;;15.00;77.70;;;;;;5114450;27;20506;-72
2022/07/20 00:32:08;;;;;;;12.63;6.60;;;15.00;77.70;;;;;;5110855;27;20020;-71
2022/07/20 00:35:14;;;;;;;13.05;5.82;;;15.00;77.60;;;;;;5108528;28;20028;-71
2022/07/20 00:38:20;;;;;;;8.43;5.25;;;15.00;77.80;;;;;;5110372;27;20134;-71
2022/07/20 00:41:26;;;;;;;7.70;5.57;;;14.90;77.70;;;;;;5109960;28;20110;-71
2022/07/20 00:44:32;;;;;;;13.10;5.15;;;14.90;78.00;;;;;;5108462;27;20020;-70
2022/07/20 00:47:39;;;;;;;7.90;3.92;;;14.90;78.60;;;;;;5113364;27;20122;-72
2022/07/20 00:50:45;;;;;;;10.75;4.13;;;15.00;77.90;;;;;;5107997;27;20035;-72
2022/07/20 00:53:51;;;;;;;14.27;5.32;;;14.90;77.80;;;;;;5106692;27;20023;-71
2022/07/20 00:56:57;;;;;;;16.05;4.20;;;14.90;77.90;;;;;;5108797;28;20341;-72
2022/07/20 01:00:03;;;;;;;9.45;3.90;;;15.00;77.90;;;;;;5110655;27;20486;-70
2022/07/20 01:03:09;;;;;;;8.38;4.63;;;14.90;77.80;;;;;;5109827;27;20024;-70
2022/07/20 01:06:15;;;;;;;6.80;4.00;;;14.90;77.80;;;;;;5109428;27;20094;-72
2022/07/20 01:09:21;;;;;;;11.95;5.53;;;14.90;77.80;;;;;;5107574;27;20398;-71
2022/07/20 01:12:27;;;;;;;7.10;4.82;;;14.90;77.80;;;;;;5112003;27;20031;-70
2022/07/20 01:15:33;;;;;;;14.60;6.88;;;14.90;77.80;;;;;;5110731;27;20110;-72
2022/07/20 01:18:39;;;;;;;10.60;5.65;;;14.90;77.70;;;;;;5105469;28;20055;-71
2022/07/20 01:21:45;;;;;;;12.25;5.43;;;14.90;77.70;;;;;;5110326;27;20478;-71
2022/07/20 01:24:32;;;;;;;8.75;4.32;;;14.90;77.70;;;;;;5110335;27;20482;-72
2022/07/20 01:26:58;;;;;;;20.70;4.78;;;14.90;77.80;;;;;;5110258;27;20035;-70
2022/07/20 01:29:25;;;;;;;16.75;3.38;;;14.80;78.30;;;;;;5112471;27;20030;-69
2022/07/20 01:31:51;;;;;;;8.63;3.17;;;14.80;78.40;;;;;;5108810;27;20022;-71
2022/07/20 01:34:19;;;;;;;5.20;2.97;;;14.80;78.40;;;;;;5110287;27;20072;-69
2022/07/20 01:36:46;;;;;;;7.80;3.33;;;14.80;78.40;;;;;;5110910;27;20450;-69
2022/07/20 01:39:12;;;;;;;14.75;3.53;;;14.80;78.30;;;;;;5109977;27;20024;-72
2022/07/20 01:41:39;;;;;;;8.40;3.50;;;14.80;78.40;;;;;;5112212;27;20026;-70
2022/07/20 01:44:06;;;;;;;8.88;3.75;;;14.80;78.30;;;;;;5106892;27;20119;-72
2022/07/20 01:46:32;;;;;;;6.53;3.95;;;14.80;78.40;;;;;;5109663;27;20366;-72
2022/07/20 01:48:59;;;;;;;16.30;3.10;;;14.80;78.40;;;;;;5109417;27;20091;-70
2022/07/20 01:51:25;;;;;;;7.22;2.83;;;14.80;78.70;;;;;;5110124;27;20383;-70
2022/07/20 01:53:52;;;;;;;10.73;3.17;;;14.80;78.60;;;;;;5107298;27;20093;-70
2022/07/20 01:56:18;;;;;;;13.45;3.05;;;14.80;78.90;;;;;;5109322;27;20027;-71
2022/07/20 01:58:45;;;;;;;12.10;2.72;;;14.80;79.30;;;;;;5108340;27;20090;-72
2022/07/20 02:01:11;;;;;;;9.93;2.47;;;14.80;79.50;;;;;;5104445;28;20509;-70
2022/07/20 02:03:40;;;;;;;20.92;3.58;;;14.80;79.60;;;;;;5107771;27;20020;-72
2022/07/20 02:06:07;;;;;;;9.55;3.47;;;14.80;79.60;;;;;;5108981;28;20064;-72
2022/07/20 02:08:33;;;;;;;7.95;2.80;;;14.80;80.10;;;;;;5111049;27;20019;-73
2022/07/20 02:11:00;;;;;;;15.35;3.42;;;14.80;80.20;;;;;;5110501;28;20486;-71
2022/07/20 02:13:26;;;;;;;8.80;2.83;;;14.80;80.20;;;;;;5109948;28;20076;-71
2022/07/20 02:18:37;;;;;;;10.25;3.75;;;14.80;80.00;;;;;;5105782;28;20458;-69
2022/07/20 02:21:04;;;;;;;8.27;3.63;;;14.80;80.30;;;;;;5109761;28;20019;-69
2022/07/20 02:23:30;;;;;;;6.65;2.75;;;14.80;80.40;;;;;;5109242;28;20008;-70
2022/07/20 02:25:57;;;;;;;12.38;3.10;;;14.80;80.70;;;;;;5110071;28;20596;-72
2022/07/20 02:28:23;;;;;;;10.38;3.58;;;14.70;80.60;;;;;;5109959;28;20019;-69
2022/07/20 02:30:50;;;;;;;11.05;3.33;;;14.80;80.00;;;;;;5108821;28;20035;-72
2022/07/20 02:33:17;;;;;;;8.63;3.90;;;14.70;79.40;;;;;;5110364;28;20053;-72
2022/07/20 02:35:43;;;;;;;10.02;4.82;;;14.70;79.10;;;;;;5107956;28;20023;-72
2022/07/20 02:38:10;;;;;;;10.35;5.40;;;14.60;78.80;;;;;;5111094;28;20007;-72
2022/07/20 02:40:36;;;;;;;12.55;5.25;;;14.60;78.60;;;;;;5108882;28;20349;-72
2022/07/20 02:43:03;;;;;;;17.60;6.82;;;14.60;78.40;;;;;;5107011;28;20028;-71
2022/07/20 02:45:29;;;;;;;12.57;5.68;;;14.60;78.30;;;;;;5107144;28;20051;-71
2022/07/20 02:48:02;;;;;;;17.45;5.75;;;14.60;78.40;;;;;;5111048;28;20039;-71
2022/07/20 02:50:33;;;;;;;20.10;6.07;;;14.50;78.20;;;;;;5108807;28;20096;-70
2022/07/20 02:53:01;;;;;;;7.63;5.00;;;14.50;78.50;;;;;;5106650;28;20077;-71
2022/07/20 02:55:28;;;;;;;10.98;5.88;;;14.50;78.70;;;;;;5109556;28;20636;-71
2022/07/20 02:57:54;;;;;;;12.23;6.00;;;14.50;78.60;;;;;;5106961;28;20034;-71
2022/07/20 03:00:21;;;;;;;10.50;5.78;;;14.50;78.50;;;;;;5107701;28;20039;-69
2022/07/20 03:02:49;;;;;;;18.52;6.13;;;14.50;78.30;;;;;;5109040;28;20076;-72
2022/07/20 03:05:15;;;;;;;9.95;6.63;;;14.50;78.00;;;;;;5107755;28;20062;-70
2022/07/20 03:07:42;;;;;;;12.82;7.22;;;14.40;77.90;;;;;;5108525;28;20032;-70
2022/07/20 03:10:09;;;;;;;10.00;6.78;;;14.50;78.00;;;;;;5107416;28;20019;-71
2022/07/20 03:12:36;;;;;;;16.08;8.40;;;14.50;77.90;;;;;;5107542;28;20024;-71
2022/07/20 03:15:04;;;;;;;12.15;7.25;;;14.40;77.40;;;;;;5106603;28;20024;-71
2022/07/20 03:17:30;;;;;;;16.67;7.65;;;14.40;77.10;;;;;;5108531;28;20051;-71
2022/07/20 03:19:57;;;;;;;12.73;7.75;;;14.40;76.90;;;;;;5108147;28;20019;-72
2022/07/20 03:22:24;;;;;;;21.38;7.65;;;14.40;77.00;;;;;;5106736;28;20024;-70
2022/07/20 03:24:50;;;;;;;52.10;28.13;;;14.40;77.20;;;;;;5106942;28;20030;-70
2022/07/20 03:27:17;;;;;;;48.13;34.58;;;14.40;78.30;;;;;;5107962;28;20088;-70
2022/07/20 03:29:43;;;;;;;30.52;19.95;;;14.30;78.60;;;;;;5108222;28;20110;-71
2022/07/20 03:32:10;;;;;;;21.92;12.98;;;14.40;78.10;;;;;;5111365;27;20016;-67
2022/07/20 03:34:36;;;;;;;19.13;9.65;;;14.30;77.70;;;;;;5112128;28;20466;-71
2022/07/20 03:37:03;;;;;;;13.77;8.50;;;14.30;77.40;;;;;;5114891;27;20122;-68
2022/07/20 03:39:29;;;;;;;10.02;8.93;;;14.30;77.40;;;;;;5112318;27;20031;-70
2022/07/20 03:41:56;;;;;;;12.07;8.30;;;14.30;77.40;;;;;;5108991;28;20106;-71
2022/07/20 03:44:22;;;;;;;12.00;6.90;;;14.30;77.50;;;;;;5113330;27;20030;-70
2022/07/20 03:46:49;;;;;;;15.55;6.78;;;14.30;77.40;;;;;;5111750;28;20110;-72
2022/07/20 03:49:15;;;;;;;9.40;5.32;;;14.20;77.30;;;;;;5113387;27;20462;-72
2022/07/20 03:51:42;;;;;;;20.20;5.93;;;14.30;77.20;;;;;;5115682;27;20015;-71
2022/07/20 03:54:08;;;;;;;14.68;5.50;;;14.20;77.20;;;;;;5111298;28;20028;-74
2022/07/20 03:56:40;;;;;;;8.95;4.85;;;14.20;76.40;;;;;;5114540;27;20026;-67
2022/07/20 03:59:08;;;;;;;7.32;4.22;;;14.10;75.50;;;;;;5115423;27;20035;-68
2022/07/20 04:01:35;;;;;;;10.15;6.22;;;14.00;77.00;;;;;;5111003;27;20065;-70
2022/07/20 04:04:02;;;;;;;15.27;8.45;;;14.00;77.90;;;;;;5111128;27;20058;-68
2022/07/20 04:07:08;;;;;;;14.77;7.20;;;14.00;77.90;;;;;;5111027;27;20127;-70
2022/07/20 04:09:49;;;;;;;23.73;15.10;;;14.00;77.90;;;;;;5115026;27;20019;-69
2022/07/20 04:12:24;;;;;;;28.90;19.50;;;14.00;77.70;;;;;;5109534;27;20078;-70
2022/07/20 04:14:52;;;;;;;17.73;12.47;;;14.00;77.60;;;;;;5113921;27;20015;-71
2022/07/20 04:17:20;;;;;;;12.60;9.05;;;14.00;77.50;;;;;;5111235;28;20284;-72
2022/07/20 04:19:47;;;;;;;12.73;7.82;;;14.00;77.20;;;;;;5113113;27;20019;-69
2022/07/20 04:22:14;;;;;;;10.05;5.93;;;14.00;77.20;;;;;;5110276;27;20024;-69
2022/07/20 04:24:49;;;;;;;9.82;6.10;;;14.00;77.20;;;;;;5108952;27;20095;-70
2022/07/20 04:27:16;;;;;;;16.92;7.10;;;14.00;77.10;;;;;;5109976;27;20490;-69
2022/07/20 04:29:43;;;;;;;10.23;6.53;;;14.00;77.20;;;;;;5112223;27;20027;-72
2022/07/20 04:32:10;;;;;;;13.23;4.65;;;14.00;77.20;;;;;;5110276;27;20028;-71
2022/07/20 04:34:36;;;;;;;15.90;6.07;;;14.00;77.30;;;;;;5109652;28;20478;-70
2022/07/20 04:37:02;;;;;;;16.42;4.85;;;14.00;77.30;;;;;;5108419;27;20051;-71
2022/07/20 04:39:29;;;;;;;16.80;4.40;;;14.00;77.50;;;;;;5111191;27;20011;-70
2022/07/20 04:41:59;;;;;;;9.30;5.53;;;14.00;77.50;;;;;;5109137;27;20105;-71
2022/07/20 04:44:26;;;;;;;14.95;4.82;;;14.00;77.90;;;;;;5110822;27;20015;-71
2022/07/20 04:46:52;;;;;;;12.60;5.28;;;14.00;77.90;;;;;;5106808;28;20016;-71
2022/07/20 04:49:19;;;;;;;15.00;4.45;;;14.10;78.30;;;;;;5109356;27;20032;-71
2022/07/20 04:51:45;;;;;;;13.10;4.68;;;14.00;78.90;;;;;;5107914;28;20035;-71
2022/07/20 04:54:12;;;;;;;7.88;3.97;;;14.00;78.60;;;;;;5108240;28;20019;-72
2022/07/20 04:56:38;;;;;;;9.45;4.60;;;14.00;78.50;;;;;;5110674;27;20024;-71
2022/07/20 04:59:45;;;;;;;9.43;4.45;;;14.00;78.40;;;;;;5109905;27;20099;-71
2022/07/20 05:02:15;;;;;;;7.88;4.88;;;14.00;78.60;;;;;;5108468;27;20051;-72
2022/07/20 05:04:46;;;;;;;8.18;3.47;;;14.00;78.70;;;;;;5111940;27;20022;-72
2022/07/20 05:07:14;;;;;;;8.20;4.40;;;14.00;78.70;;;;;;5110156;27;20030;-72
2022/07/20 05:09:41;;;;;;;7.78;3.95;;;14.00;78.90;;;;;;5110737;27;20012;-71
2022/07/20 05:12:08;;;;;;;9.10;3.63;;;14.00;78.90;;;;;;5110816;27;20024;-72
2022/07/20 05:14:35;;;;;;;8.30;3.90;;;14.00;78.90;;;;;;5111424;27;20039;-72
2022/07/20 05:17:01;;;;;;;8.18;3.78;;;14.00;79.00;;;;;;5107794;28;20039;-72
2022/07/20 05:19:28;;;;;;;8.40;4.18;;;14.00;78.90;;;;;;5113558;27;20026;-71
2022/07/20 05:21:56;;;;;;;14.30;3.85;;;14.00;79.00;;;;;;5088023;28;20020;-71
2022/07/20 05:24:23;;;;;;;8.38;4.03;;;14.00;79.10;;;;;;5110526;27;20016;-72
2022/07/20 05:26:49;;;;;;;8.38;4.40;;;14.00;79.20;;;;;;5110549;28;20035;-71
2022/07/20 05:29:16;;;;;;;9.77;4.72;;;14.00;79.10;;;;;;5109563;28;20054;-71
2022/07/20 05:31:43;;;;;;;5.97;3.88;;;14.00;79.10;;;;;;5110288;27;20016;-71
2022/07/20 05:34:09;;;;;;;10.88;4.82;;;13.90;79.10;;;;;;5105881;28;20533;-71
2022/07/20 05:36:36;;;;;;;8.80;4.55;;;14.00;79.20;;;;;;5090691;28;20398;-70
2022/07/20 05:39:02;;;;;;;7.55;4.78;;;13.90;79.20;;;;;;5109922;27;20011;-71
2022/07/20 05:41:29;;;;;;;5.68;3.70;;;13.90;79.20;;;;;;5114289;27;20023;-71
2022/07/20 05:43:55;;;;;;;10.63;4.93;;;13.90;79.20;;;;;;5110480;27;20050;-70
2022/07/20 05:46:22;;;;;;;10.88;4.15;;;13.90;79.30;;;;;;5108593;27;20036;-71
2022/07/20 05:48:48;;;;;;;19.60;4.97;;;13.90;79.30;;;;;;5109924;27;20015;-71
2022/07/20 05:51:15;;;;;;;9.10;4.90;;;13.90;79.30;;;;;;5108847;27;20015;-70
2022/07/20 05:53:41;;;;;;;13.20;5.10;;;13.90;80.00;;;;;;5109157;27;20060;-70
2022/07/20 05:56:08;;;;;;;19.05;5.53;;;13.90;80.60;;;;;;5110532;27;20016;-70
2022/07/20 05:58:34;;;;;;;12.23;5.03;;;13.90;81.00;;;;;;5107710;28;20019;-72
2022/07/20 06:01:01;;;;;;;9.35;5.57;;;14.00;81.40;;;;;;5106333;28;20038;-70
2022/07/20 06:03:27;;;;;;;14.20;5.80;;;14.00;81.70;;;;;;5111734;27;20027;-71
2022/07/20 06:05:54;;;;;;;7.18;5.38;;;14.00;81.80;;;;;;5109052;28;20371;-70
2022/07/20 06:08:20;;;;;;;11.70;5.35;;;14.00;81.80;;;;;;5091397;28;20026;-71
2022/07/20 06:10:47;;;;;;;15.75;5.82;;;14.00;81.70;;;;;;5109927;27;20020;-70
2022/07/20 06:13:13;;;;;;;14.93;5.72;;;14.00;81.70;;;;;;5107971;28;20019;-70
2022/07/20 06:15:40;;;;;;;10.98;5.82;;;14.10;81.50;;;;;;5110262;28;20047;-71
2022/07/20 06:18:07;;;;;;;10.43;5.72;;;14.00;81.10;;;;;;5112477;28;20106;-71
2022/07/20 06:20:35;;;;;;;9.75;5.65;;;14.00;80.50;;;;;;5109293;28;20019;-71
2022/07/20 06:23:01;;;;;;;11.60;5.85;;;14.00;80.00;;;;;;5108546;28;20027;-71
2022/07/20 06:25:28;;;;;;;11.43;6.88;;;13.90;80.00;;;;;;5109034;28;20087;-70
2022/07/20 06:27:57;;;;;;;23.13;6.38;;;13.90;80.10;;;;;;5112530;28;20078;-71
2022/07/20 06:30:23;;;;;;;28.27;6.82;;;13.90;80.30;;;;;;5108282;28;20023;-71
2022/07/20 06:32:50;;;;;;;10.93;5.95;;;13.90;80.60;;;;;;5110920;28;20012;-70
2022/07/20 06:35:16;;;;;;;12.32;6.25;;;13.90;80.70;;;;;;5107252;28;20134;-71
2022/07/20 06:37:43;;;;;;;12.38;8.13;;;13.90;80.70;;;;;;5109379;28;20474;-71
2022/07/20 06:40:11;;;;;;;9.48;4.88;;;13.90;80.80;;;;;;5107459;28;20051;-71
2022/07/20 06:42:37;;;;;;;15.50;6.63;;;13.90;81.00;;;;;;5109916;28;20011;-71
2022/07/20 06:45:05;;;;;;;11.50;6.30;;;13.90;81.10;;;;;;5111442;28;20020;-71
2022/07/20 06:47:31;;;;;;;14.30;5.22;;;13.90;81.40;;;;;;5106672;28;20505;-71
2022/07/20 06:49:58;;;;;;;11.38;5.45;;;13.90;81.60;;;;;;5109526;28;20024;-71
2022/07/20 06:52:25;;;;;;;11.30;6.22;;;13.90;81.80;;;;;;5106717;28;20016;-71
2022/07/20 06:54:51;;;;;;;12.77;5.53;;;13.90;82.00;;;;;;5108629;28;20363;-71
2022/07/20 06:57:18;;;;;;;11.13;5.45;;;14.00;82.30;;;;;;5109714;28;20030;-71
2022/07/20 06:59:45;;;;;;;10.90;5.97;;;13.90;82.40;;;;;;5107140;28;20043;-71
2022/07/20 07:02:11;;;;;;;11.80;5.90;;;14.00;82.80;;;;;;5107985;28;20019;-71
2022/07/20 07:04:38;;;;;;;10.63;6.10;;;14.00;82.90;;;;;;5108198;28;20014;-71
2022/07/20 07:07:04;;;;;;;10.07;5.80;;;14.00;83.00;;;;;;5113009;27;20125;-71
2022/07/20 07:09:31;;;;;;;15.00;6.38;;;14.00;83.10;;;;;;5109507;27;20030;-71
2022/07/20 07:11:58;;;;;;;12.15;5.15;;;14.10;83.60;;;;;;5114241;27;20019;-71
2022/07/20 07:14:25;;;;;;;7.60;5.05;;;14.10;83.80;;;;;;5110543;27;20521;-72
2022/07/20 07:16:53;;;;;;;11.18;5.10;;;14.10;83.90;;;;;;5110177;27;20039;-71
2022/07/20 07:19:19;;;;;;;11.63;5.80;;;14.10;84.10;;;;;;5095430;28;20072;-71
2022/07/20 07:21:46;;;;;;;16.90;5.28;;;14.20;84.20;;;;;;5113353;27;20019;-72
2022/07/20 07:24:12;;;;;;;10.13;5.22;;;14.20;84.30;;;;;;5108976;28;20016;-72
2022/07/20 07:26:39;;;;;;;11.38;5.53;;;14.20;84.40;;;;;;5112139;27;20028;-72
2022/07/20 07:29:05;;;;;;;9.88;6.00;;;14.20;84.50;;;;;;5113302;27;20024;-71
2022/07/20 07:31:32;;;;;;;10.77;4.95;;;14.20;84.50;;;;;;5111748;27;20019;-72
2022/07/20 07:33:59;;;;;;;10.23;4.72;;;14.20;84.70;;;;;;5112298;27;20089;-71
2022/07/20 07:36:26;;;;;;;8.68;5.47;;;14.20;84.90;;;;;;5113445;27;20482;-71
2022/07/20 07:38:52;;;;;;;12.98;5.22;;;14.30;84.90;;;;;;5109477;27;20049;-72
2022/07/20 07:41:19;;;;;;;6.28;3.85;;;14.30;84.90;;;;;;5112881;27;20838;-71
2022/07/20 07:43:45;;;;;;;7.82;4.82;;;14.30;84.90;;;;;;5110853;27;20363;-71
2022/07/20 07:46:12;;;;;;;9.82;4.85;;;14.30;84.90;;;;;;5114154;27;20106;-72
2022/07/20 07:48:38;;;;;;;7.47;3.22;;;14.30;84.70;;;;;;5108734;27;20482;-72
2022/07/20 07:51:05;;;;;;;7.97;3.10;;;14.30;84.50;;;;;;5116004;27;20051;-71
2022/07/20 07:53:31;;;;;;;7.03;3.10;;;14.30;84.20;;;;;;5111669;27;20065;-71
2022/07/20 07:55:58;;;;;;;3.30;2.47;;;14.40;84.00;;;;;;5112319;27;20027;-72
2022/07/20 07:58:24;;;;;;;6.93;3.08;;;14.40;83.70;;;;;;5112485;27;20026;-72
2022/07/20 08:00:51;;;;;;;3.10;2.10;;;14.40;83.30;;;;;;5112367;27;20042;-71
2022/07/20 08:03:17;;;;;;;7.35;2.50;;;14.40;83.20;;;;;;5112113;28;20008;-71
2022/07/20 08:05:44;;;;;;;6.32;2.22;;;14.40;82.80;;;;;;5111077;27;20024;-71
2022/07/20 08:08:13;;;;;;;8.52;2.50;;;14.50;82.60;;;;;;5115372;27;20034;-72
2022/07/20 08:10:41;;;;;;;3.35;2.55;;;14.50;82.30;;;;;;5111898;27;20068;-71
2022/07/20 08:13:08;;;;;;;7.90;2.03;;;14.50;82.10;;;;;;5113174;27;20416;-71
2022/07/20 08:15:35;;;;;;;6.13;2.25;;;14.50;82.00;;;;;;5109963;27;20493;-72
2022/07/20 08:18:01;;;;;;;6.03;2.75;;;14.60;82.10;;;;;;5111181;27;20431;-71
2022/07/20 08:20:28;;;;;;;10.40;3.30;;;14.60;82.00;;;;;;5114235;27;20415;-71
2022/07/20 08:22:55;;;;;;;4.82;3.35;;;14.60;81.90;;;;;;5109058;27;20024;-70
2022/07/20 08:25:22;;;;;;;7.43;3.08;;;14.70;82.00;;;;;;5112855;27;20023;-72
2022/07/20 08:27:50;;;;;;;5.28;2.90;;;14.70;82.00;;;;;;5111001;27;20490;-73
2022/07/20 08:30:17;;;;;;;5.10;2.30;;;14.80;81.90;;;;;;5112235;27;20016;-71
2022/07/20 08:32:43;;;;;;;6.43;2.50;;;14.80;81.70;;;;;;5111197;27;20023;-72
2022/07/20 08:35:10;;;;;;;4.82;1.95;;;14.80;81.50;;;;;;5109464;27;20101;-72
2022/07/20 08:37:40;;;;;;;6.05;1.63;;;14.90;81.30;;;;;;5112830;27;20024;-72
2022/07/20 08:40:08;;;;;;;3.17;1.70;;;14.90;81.00;;;;;;5109527;28;20015;-72
2022/07/20 08:42:34;;;;;;;2.88;0.93;;;14.90;80.90;;;;;;5110227;27;20062;-72
2022/07/20 08:45:01;;;;;;;4.97;0.85;;;14.90;80.80;;;;;;5113244;27;20388;-72
2022/07/20 08:47:30;;;;;;;1.40;0.60;;;15.00;80.60;;;;;;5112646;27;20034;-72
2022/07/20 08:49:57;;;;;;;3.33;0.85;;;15.00;80.40;;;;;;5109906;27;20027;-72
2022/07/20 08:52:24;;;;;;;2.42;1.15;;;15.00;80.20;;;;;;5110551;27;20113;-72
2022/07/20 08:54:50;;;;;;;5.72;0.98;;;15.10;80.20;;;;;;5110594;27;20490;-72
2022/07/20 08:57:18;;;;;;;1.52;0.70;;;15.10;80.20;;;;;;5111196;27;20031;-71
2022/07/20 08:59:45;;;;;;;0.32;0.22;;;15.10;80.20;;;;;;5111346;27;20024;-72
2022/07/20 09:02:12;;;;;;;0.90;0.50;;;15.20;80.20;;;;;;5108200;27;20483;-72
2022/07/20 09:04:54;;;;;;;6.55;0.90;;;15.20;80.00;;;;;;5106243;28;20085;-73
2022/07/20 09:07:39;;;;;;;3.13;0.88;;;15.20;79.80;;;;;;5112707;27;20023;-72
2022/07/20 09:10:11;;;;;;;2.13;0.55;;;15.30;79.70;;;;;;5106881;28;20023;-72
2022/07/20 09:12:56;;;;;;;1.08;0.73;;;15.30;79.50;;;;;;5111100;27;20031;-72
2022/07/20 09:15:36;;;;;;;5.13;1.48;;;15.30;79.20;;;;;;5111710;27;20019;-73
2022/07/20 09:18:10;;;;;;;1.70;1.23;;;15.40;78.90;;;;;;5109012;27;20050;-71
2022/07/20 09:20:42;;;;;;;4.80;0.43;;;15.40;78.70;;;;;;5111268;27;20808;-71
2022/07/20 09:23:16;;;;;;;4.80;0.60;;;15.50;78.70;;;;;;5110179;27;20548;-72
2022/07/20 09:26:03;;;;;;;3.47;0.50;;;15.60;78.90;;;;;;5109942;27;20016;-71
2022/07/20 09:28:44;;;;;;;3.88;0.85;;;15.60;79.10;;;;;;5108323;27;20024;-74
2022/07/20 09:31:19;;;;;;;2.65;0.82;;;15.70;78.80;;;;;;5106215;27;20026;-74
2022/07/20 09:33:51;;;;;;;2.22;0.68;;;15.70;78.70;;;;;;5109819;27;20107;-73
2022/07/20 09:36:20;;;;;;;4.65;0.50;;;15.80;78.50;;;;;;5110597;27;20490;-74
2022/07/20 09:38:47;;;;;;;4.57;0.55;;;15.80;78.30;;;;;;5109818;28;20016;-72
2022/07/20 09:41:30;;;;;;;6.18;1.17;;;15.90;78.00;;;;;;5109265;27;20466;-71
2022/07/20 09:43:59;;;;;;;1.25;0.50;;;15.90;78.00;;;;;;5113667;27;20085;-72
2022/07/20 09:47:05;;;;;;;5.80;0.60;;;16.00;77.90;;;;;;5111919;27;20046;-72
2022/07/20 09:49:34;;;;;;;1.45;1.00;;;16.10;77.90;;;;;;5107981;27;20419;-72
2022/07/20 09:52:02;;;;;;;1.23;0.40;;;16.10;76.80;;;;;;5110620;27;20031;-72
2022/07/20 09:54:29;;;;;;;3.42;0.88;;;16.20;76.50;;;;;;5109185;27;20016;-72
2022/07/20 09:56:56;;;;;;;2.65;0.60;;;16.20;76.10;;;;;;5112242;27;20675;-72
2022/07/20 09:59:22;;;;;;;2.38;0.60;;;16.30;76.00;;;;;;5091255;28;20370;-72
2022/07/20 10:01:54;;;;;;;1.15;0.45;;;16.30;75.90;;;;;;5111058;27;20055;-72
2022/07/20 10:04:22;;;;;;;3.50;0.32;;;16.30;75.50;;;;;;5110650;27;20352;-71
2022/07/20 10:06:51;;;;;;;0.50;0.30;;;16.40;74.70;;;;;;5108662;27;20114;-71
2022/07/20 10:09:18;;;;;;;1.13;0.30;;;16.40;74.30;;;;;;5092408;28;20365;-71
2022/07/20 10:11:47;;;;;;;1.83;1.35;;;16.50;74.20;;;;;;5112741;28;20055;-71
2022/07/20 10:14:17;;;;;;;3.80;0.50;;;16.50;74.10;;;;;;5111031;28;20103;-73
2022/07/20 10:16:50;;;;;;;0.77;0.32;;;16.60;74.00;;;;;;5109815;28;20043;-71
2022/07/20 10:19:18;;;;;;;0.65;0.35;;;16.60;73.60;;;;;;5099957;28;20442;-71
2022/07/20 10:21:48;;;;;;;0.73;0.38;;;16.70;72.70;;;;;;5109362;28;20016;-73
2022/07/20 10:24:18;;;;;;;0.85;0.30;;;16.70;72.50;;;;;;5106908;28;20028;-72
2022/07/20 10:26:49;;;;;;;2.92;0.57;;;16.70;72.60;;;;;;5110259;28;20032;-73
2022/07/20 10:29:49;;;;;;;0.43;0.20;;;16.80;72.90;;;;;;5106311;28;20012;-72
2022/07/20 10:32:20;;;;;;;3.00;0.32;;;16.80;72.30;;;;;;5072372;28;20027;-72
2022/07/20 10:34:48;;;;;;;1.75;0.20;;;16.90;72.40;;;;;;5110102;28;20073;-73
2022/07/20 10:37:37;;;;;;;0.60;0.50;;;16.90;71.80;;;;;;5109590;28;20425;-73
2022/07/20 10:40:14;;;;;;;1.50;0.30;;;16.90;71.10;;;;;;5112118;27;20024;-73
2022/07/20 10:42:46;;;;;;;1.85;0.40;;;16.90;70.20;;;;;;5114419;27;20020;-72
2022/07/20 10:45:16;;;;;;;1.45;0.40;;;17.00;69.80;;;;;;5116679;27;20016;-73
2022/07/20 10:48:03;;;;;;;5.70;0.40;;;17.00;69.10;;;;;;5114332;27;20061;-73
2022/07/20 10:50:41;;;;;;;3.22;0.40;;;17.10;69.40;;;;;;5111025;27;20019;-73
2022/07/20 10:53:10;;;;;;;1.25;0.30;;;17.10;69.10;;;;;;5113617;27;20084;-72
2022/07/20 10:55:37;;;;;;;2.40;0.40;;;17.10;68.50;;;;;;5114364;27;20356;-72
2022/07/20 10:58:09;;;;;;;2.50;0.50;;;17.10;67.90;;;;;;5113547;27;20053;-71
2022/07/20 11:00:48;;;;;;;3.30;0.40;;;17.20;67.90;;;;;;5110697;28;20050;-72
2022/07/20 11:03:20;;;;;;;1.00;0.40;;;17.20;66.90;;;;;;5115913;27;20034;-73
2022/07/20 11:05:58;;;;;;;1.13;0.20;;;17.20;66.50;;;;;;5112810;27;20032;-72
2022/07/20 11:08:25;;;;;;;0.65;0.40;;;17.30;66.80;;;;;;5114296;27;20482;-72
2022/07/20 11:10:52;;;;;;;0.82;0.30;;;17.30;66.00;;;;;;5116034;27;20030;-73
2022/07/20 11:13:18;;;;;;;0.88;0.20;;;17.30;65.40;;;;;;5111603;27;20015;-72
2022/07/20 11:15:53;;;;;;;0.70;0.40;;;17.40;64.10;;;;;;5111595;27;20517;-72
2022/07/20 11:18:23;;;;;;;1.50;0.32;;;17.40;63.90;;;;;;5113780;27;20030;-72
2022/07/20 11:20:50;;;;;;;0.43;0.30;;;17.40;63.50;;;;;;5110112;27;20431;-72
2022/07/20 11:23:19;;;;;;;2.60;1.20;;;17.50;63.40;;;;;;5113067;27;20577;-72
2022/07/20 11:25:52;;;;;;;1.45;0.38;;;17.50;63.40;;;;;;5093695;27;20117;-72
2022/07/20 11:28:22;;;;;;;0.63;0.40;;;17.60;63.20;;;;;;5109154;28;20027;-73
2022/07/20 11:30:50;;;;;;;1.45;0.60;;;17.60;63.40;;;;;;5112538;27;20011;-72
2022/07/20 11:33:34;;;;;;;3.00;0.30;;;17.70;63.00;;;;;;5115074;27;20020;-73
2022/07/20 11:36:04;;;;;;;2.25;0.50;;;17.70;63.10;;;;;;5114126;27;20023;-73
2022/07/20 11:38:38;;;;;;;1.95;0.38;;;17.70;62.70;;;;;;5109400;28;20102;-73
2022/07/20 11:41:07;;;;;;;4.70;0.50;;;17.70;62.00;;;;;;5094879;28;20067;-72
2022/07/20 11:43:34;;;;;;;0.22;0.22;;;17.80;61.90;;;;;;5110716;27;20016;-73
2022/07/20 11:46:14;;;;;;;2.08;0.60;;;17.80;61.20;;;;;;5107282;28;20062;-74
2022/07/20 11:48:42;;;;;;;15.48;0.95;;;17.80;61.10;;;;;;5114976;27;20799;-72
2022/07/20 11:51:10;;;;;;;4.85;0.45;;;17.90;60.90;;;;;;5110764;28;20095;-73
2022/07/20 11:53:39;;;;;;;3.20;0.65;;;17.90;61.70;;;;;;5112236;28;20012;-72
2022/07/20 11:56:17;;;;;;;4.47;0.60;;;17.90;61.50;;;;;;5110951;27;20012;-73
2022/07/20 11:58:47;;;;;;;1.90;0.30;;;18.00;61.20;;;;;;5112378;27;20024;-73
2022/07/20 12:01:19;;;;;;;1.98;0.32;;;18.00;60.20;;;;;;5108298;27;20031;-73
2022/07/20 12:03:59;;;;;;;0.73;0.40;;;18.00;60.00;;;;;;5109215;28;20420;-73
2022/07/20 12:06:28;;;;;;;0.95;0.57;;;18.10;60.10;;;;;;5112475;27;20371;-73
2022/07/20 12:09:16;;;;;;;1.63;0.30;;;18.10;60.00;;;;;;5109570;27;20012;-74
2022/07/20 12:12:01;;;;;;;7.22;0.70;;;18.10;60.40;;;;;;5109602;28;20016;-72
2022/07/20 12:14:41;;;;;;;3.60;0.40;;;18.20;62.00;;;;;;5111556;27;20016;-72
2022/07/20 12:17:46;;;;;;;1.23;0.45;;;18.20;62.30;;;;;;5109926;27;20055;-74
2022/07/20 12:20:12;;;;;;;2.17;0.40;;;18.30;62.50;;;;;;5103893;27;20036;-70
2022/07/20 12:22:53;;;;;;;7.20;0.55;;;18.30;62.20;;;;;;5111672;27;20007;-72
2022/07/20 12:25:20;;;;;;;3.08;0.70;;;18.30;61.60;;;;;;5113278;27;20016;-73
2022/07/20 12:27:47;;;;;;;2.10;0.43;;;18.20;61.60;;;;;;5110446;27;20039;-71
2022/07/20 12:30:34;;;;;;;5.55;0.50;;;18.20;61.50;;;;;;5108894;27;20012;-73
2022/07/20 12:33:07;;;;;;;5.78;0.52;;;18.20;61.40;;;;;;5111406;27;20023;-73
2022/07/20 12:35:35;;;;;;;1.27;0.40;;;18.20;61.70;;;;;;5109538;27;20011;-74
2022/07/20 12:38:02;;;;;;;1.33;0.30;;;18.20;61.60;;;;;;5112830;27;20007;-73
2022/07/20 12:40:47;;;;;;;0.28;0.20;;;18.20;61.50;;;;;;5109850;28;20032;-73
2022/07/20 12:43:34;;;;;;;0.75;0.10;;;18.20;61.60;;;;;;5091618;27;20438;-72
2022/07/20 12:46:13;;;;;;;4.57;0.30;;;18.30;60.60;;;;;;5113161;27;20019;-72
2022/07/20 12:48:44;;;;;;;9.90;0.50;;;18.30;60.90;;;;;;5111509;27;20043;-73
2022/07/20 12:51:12;;;;;;;1.65;0.40;;;18.30;60.80;;;;;;5106877;27;20038;-74
2022/07/20 12:53:40;;;;;;;2.88;0.65;;;18.30;60.80;;;;;;5114185;27;20044;-72
2022/07/20 12:56:07;;;;;;;2.95;0.30;;;18.40;60.50;;;;;;5109134;27;20345;-72
2022/07/20 12:58:35;;;;;;;2.03;0.30;;;18.40;60.40;;;;;;5112651;27;20180;-73
2022/07/20 13:01:02;;;;;;;0.35;0.22;;;18.40;60.20;;;;;;5106183;27;20018;-73
2022/07/20 13:03:28;;;;;;;4.95;0.30;;;18.40;60.00;;;;;;5111244;27;20027;-72
2022/07/20 13:05:55;;;;;;;0.80;0.20;;;18.40;59.50;;;;;;5112276;27;20042;-73
2022/07/20 13:08:22;;;;;;;0.63;0.30;;;18.40;60.20;;;;;;5109170;27;20140;-72
2022/07/20 13:10:49;;;;;;;2.13;0.40;;;18.40;59.80;;;;;;5113388;27;20504;-73
2022/07/20 13:13:15;;;;;;;0.75;0.30;;;18.40;60.20;;;;;;5110929;27;20022;-73
2022/07/20 13:15:42;;;;;;;1.10;0.20;;;18.40;60.20;;;;;;5110605;27;20497;-72